Data for 05/29/2015

Time Sea-Level Adjusted Pressure Absolute Pressure Temperature Relative Humidity Dew Point   
(mb) (inHg) (mb) (inHg) (C) (F) (%) (C) (F)
00:05 1025 30.27 855 25.25 8.5 47.3 92 7.3 45.1
00:10 1025 30.27 855 25.25 8.5 47.2 92 7.2 44.9
00:15 1025 30.27 855 25.25 8.5 47.2 91 7.1 44.7
00:20 1025 30.27 855 25.25 8.4 47.2 91 7.1 44.7
00:25 1025 30.27 855 25.25 8.4 47.1 90 6.9 44.4
00:30 1025 30.27 855 25.25 8.4 47.1 90 6.9 44.3
00:35 1025 30.27 855 25.25 8.4 47.1 90 6.8 44.2
00:40 1025 30.27 855 25.25 8.4 47 90 6.8 44.3
00:45 1025 30.27 854 25.22 8.4 47 89 6.6 43.9
00:50 1025 30.27 854 25.22 8.2 46.8 89 6.5 43.6
00:55 1025 30.27 855 25.25 8.2 46.7 89 6.5 43.6
01:00 1025 30.27 855 25.25 8.2 46.8 89 6.5 43.6
01:05 1025 30.27 854 25.22 8.2 46.8 89 6.5 43.6
01:10 1025 30.27 855 25.25 8.3 46.9 89 6.5 43.8
01:15 1025 30.27 855 25.25 8.3 46.9 89 6.5 43.8
01:20 1025 30.27 855 25.25 8.3 46.9 89 6.5 43.7
01:25 1025 30.27 855 25.25 8.3 47 89 6.5 43.8
01:30 1025 30.27 855 25.25 8.3 47 88 6.5 43.7
01:35 1025 30.27 855 25.25 8.3 46.9 88 6.4 43.6
01:40 1025 30.27 855 25.25 8.3 46.9 88 6.4 43.4
01:45 1025 30.27 855 25.25 8.3 46.9 88 6.3 43.4
01:50 1025 30.27 855 25.25 8.3 46.9 87 6.2 43.2
01:55 1025 30.27 855 25.25 8.4 47 86 6.2 43.2
02:00 1025 30.27 855 25.25 8.4 47.2 87 6.4 43.5
02:05 1025 30.27 855 25.25 8.4 47.1 87 6.5 43.6
02:10 1025 30.27 855 25.25 8.4 47.1 87 6.4 43.6
02:15 1025 30.27 855 25.25 8.4 47.1 87 6.4 43.5
02:20 1025 30.27 855 25.25 8.4 47.1 86 6.3 43.3
02:25 1026 30.3 855 25.25 8.4 47.2 86 6.2 43.2
02:30 1026 30.3 855 25.25 8.5 47.2 86 6.2 43.2
02:35 1026 30.3 855 25.25 8.5 47.3 86 6.3 43.4
02:40 1026 30.3 855 25.25 8.4 47.2 86 6.2 43.2
02:45 1026 30.3 855 25.25 8.3 46.9 85 5.9 42.6
02:50 1026 30.3 855 25.25 8.1 46.7 86 5.9 42.6
02:55 1026 30.3 855 25.25 8 46.4 86 5.9 42.5
03:00 1026 30.3 855 25.25 8 46.4 86 5.9 42.6
03:05 1026 30.3 855 25.25 8 46.4 86 5.8 42.5
03:10 1026 30.3 855 25.25 7.9 46.1 87 5.9 42.5
03:15 1025 30.27 855 25.25 7.9 46.1 87 5.8 42.5
03:20 1025 30.27 855 25.25 7.8 46 87 5.8 42.4
03:25 1026 30.3 855 25.25 7.8 46 88 5.8 42.5
03:30 1026 30.3 855 25.25 7.7 45.9 88 5.9 42.5
03:35 1026 30.3 855 25.25 7.6 45.8 88 5.8 42.4
03:40 1025 30.27 855 25.25 7.7 45.8 87 5.7 42.3
03:45 1026 30.3 855 25.25 7.7 45.9 88 5.8 42.5
03:50 1026 30.3 855 25.25 7.7 45.9 88 5.8 42.4
03:55 1026 30.3 855 25.25 7.7 45.8 88 5.8 42.4
04:00 1026 30.3 855 25.25 7.7 45.8 88 5.8 42.4
04:05 1026 30.3 855 25.25 7.7 45.8 88 5.8 42.4
04:10 1026 30.3 855 25.25 7.6 45.7 87 5.7 42.2
04:15 1026 30.3 855 25.25 7.6 45.7 88 5.7 42.3
04:20 1026 30.3 855 25.25 7.6 45.7 88 5.8 42.4
04:25 1026 30.3 855 25.25 7.6 45.6 88 5.6 42.2
04:30 1025 30.27 855 25.25 7.6 45.6 88 5.7 42.2
04:35 1026 30.3 855 25.25 7.6 45.7 87 5.6 42.1
04:40 1026 30.3 855 25.25 7.6 45.8 87 5.7 42.2
04:45 1026 30.3 855 25.25 7.7 45.8 87 5.6 42.1
04:50 1026 30.3 855 25.25 7.7 45.9 87 5.7 42.2
04:55 1026 30.3 855 25.25 7.7 45.8 87 5.6 42.1
05:00 1026 30.3 855 25.25 7.7 45.8 86 5.5 41.9
05:05 1026 30.3 855 25.25 7.7 45.9 86 5.5 41.9
05:10 1026 30.3 855 25.25 7.8 46 86 5.6 42.1
05:15 1026 30.3 855 25.25 7.8 46.1 85 5.5 41.9
05:20 1026 30.3 855 25.25 7.9 46.3 87 5.9 42.7
05:25 1026 30.3 855 25.25 7.9 46.1 88 6.1 42.9
05:30 1026 30.3 855 25.25 7.7 45.8 89 6 42.8
05:35 1026 30.3 855 25.25 7.7 45.8 90 6.1 43
05:40 1026 30.3 855 25.25 7.7 45.8 90 6.1 42.9
05:45 1026 30.3 855 25.25 7.6 45.7 90 6 42.8
05:50 1026 30.3 855 25.25 7.7 45.8 90 6.1 43
05:55 1026 30.3 855 25.25 7.8 46 89 6.2 43.1
06:00 1026 30.3 855 25.25 7.8 46 89 6.1 43
06:05 1026 30.3 855 25.25 7.9 46.1 89 6.1 43
06:10 1026 30.3 855 25.25 7.9 46.3 88 6.1 42.9
06:15 1026 30.3 855 25.25 8 46.4 87 6 42.8
06:20 1026 30.3 855 25.25 8.1 46.6 86 5.9 42.5
06:25 1026 30.3 855 25.25 8.2 46.7 85 5.8 42.5
06:30 1026 30.3 855 25.25 8.3 46.9 84 5.8 42.4
06:35 1026 30.3 855 25.25 8.4 47.1 84 5.9 42.6
06:40 1026 30.3 855 25.25 8.8 47.8 82 5.9 42.6
06:45 1026 30.3 855 25.25 9.3 48.7 79 5.9 42.7
06:50 1026 30.3 855 25.25 9.5 49.1 78 5.8 42.5
06:55 1026 30.3 855 25.25 9.3 48.8 78 5.7 42.3
07:00 1026 30.3 855 25.25 9.3 48.7 78 5.6 42.1
07:05 1026 30.3 855 25.25 9.3 48.8 79 5.8 42.5
07:10 1026 30.3 855 25.25 9.4 48.8 78 5.7 42.3
07:15 1026 30.3 855 25.25 9.4 48.9 78 5.7 42.3
07:20 1026 30.3 855 25.25 9.4 48.9 78 5.8 42.5
07:25 1026 30.3 855 25.25 9.2 48.5 78 5.5 41.9
07:30 1026 30.3 855 25.25 9.1 48.4 78 5.5 41.8
07:35 1026 30.3 855 25.25 9.1 48.3 77 5.3 41.6
07:40 1026 30.3 855 25.25 9 48.1 79 5.5 41.9
07:45 1026 30.3 855 25.25 9 48.3 77 5.3 41.5
07:50 1026 30.3 855 25.25 9.1 48.3 76 5.1 41.2
07:55 1026 30.3 855 25.25 9.3 48.7 76 5.2 41.4
08:00 1026 30.3 855 25.25 9.4 48.9 77 5.6 42.1
08:05 1026 30.3 855 25.25 9.6 49.3 74 5.3 41.5
08:10 1026 30.3 855 25.25 9.7 49.4 76 5.6 42.1
08:15 1026 30.3 855 25.25 9.6 49.3 74 5.1 41.2
08:20 1025 30.27 855 25.25 9.8 49.6 73 5.2 41.4
08:25 1025 30.27 855 25.25 10 49.9 72 5.2 41.3
08:30 1025 30.27 855 25.25 10.3 50.5 72 5.5 42
08:35 1025 30.27 855 25.25 10.4 50.7 71 5.4 41.8
08:40 1025 30.27 854 25.22 10.3 50.6 70 5.2 41.3
08:45 1025 30.27 854 25.22 10.6 51.1 69 5.3 41.5
08:50 1025 30.27 854 25.22 10.9 51.5 68 5.1 41.2
08:55 1025 30.27 854 25.22 11.1 52.1 68 5.4 41.8
09:00 1025 30.27 854 25.22 11.1 52 67 5.3 41.5
09:05 1025 30.27 854 25.22 11.1 51.9 68 5.5 41.9
09:10 1025 30.27 854 25.22 11.4 52.5 66 5.4 41.7
09:15 1025 30.27 854 25.22 11.4 52.5 66 5.4 41.7
09:20 1025 30.27 854 25.22 12 53.6 65 5.7 42.2
09:25 1025 30.27 854 25.22 11.8 53.2 66 5.6 42.2
09:30 1025 30.27 854 25.22 11.8 53.2 66 5.8 42.4
09:35 1025 30.27 854 25.22 12.2 53.9 64 5.6 42.1
09:40 1025 30.27 854 25.22 12 53.6 65 5.7 42.3
09:45 1025 30.27 854 25.22 12.2 53.9 64 5.6 42.1
09:50 1025 30.27 854 25.22 12.3 54.1 66 6.2 43.2
09:55 1025 30.27 854 25.22 11.9 53.4 66 5.9 42.6
10:00 1025 30.27 854 25.22 12.1 53.8 66 6 42.7
10:05 1025 30.27 854 25.22 12.2 54 66 6.1 42.9
10:10 1025 30.27 854 25.22 12.4 54.3 64 5.8 42.5
10:15 1025 30.27 854 25.22 13.3 55.9 62 6.2 43.1
10:20 1025 30.27 854 25.22 13.4 56.2 62 6.3 43.4
10:25 1025 30.27 854 25.22 13.6 56.5 60 6 42.9
10:30 1025 30.27 854 25.22 13.4 56.1 63 6.5 43.7
10:35 1025 30.27 854 25.22 13.3 55.9 63 6.4 43.6
10:40 1025 30.27 854 25.22 13.1 55.5 62 6 42.8
10:45 1025 30.27 854 25.22 13.1 55.6 60 5.5 41.9
10:50 1025 30.27 854 25.22 13.5 56.4 62 6.5 43.7
10:55 1025 30.27 854 25.22 14.1 57.3 62 6.9 44.4
11:00 1025 30.27 854 25.22 13.9 57 61 6.6 43.8
11:05 1025 30.27 854 25.22 13.8 56.8 61 6.5 43.7
11:10 1025 30.27 854 25.22 13.9 57.1 61 6.6 43.8
11:15 1025 30.27 854 25.22 14.6 58.4 57 6.2 43.2
11:20 1024 30.24 854 25.22 14.5 58.1 61 7.2 44.9
11:25 1024 30.24 854 25.22 14.9 58.8 57 6.5 43.7
11:30 1024 30.24 853 25.19 15.4 59.7 55 6.6 43.8
11:35 1024 30.24 853 25.19 14.7 58.4 60 7.2 44.9
11:40 1024 30.24 853 25.19 14.9 58.7 57 6.4 43.5
11:45 1024 30.24 853 25.19 15.2 59.4 58 7.1 44.7
11:50 1024 30.24 853 25.19 15 59.1 58 7 44.5
11:55 1024 30.24 853 25.19 15.4 59.6 57 7 44.7
12:00 1024 30.24 853 25.19 15.4 59.7 58 7.3 45.1
12:05 1024 30.24 853 25.19 15.4 59.6 56 6.8 44.2
12:10 1024 30.24 853 25.19 15.1 59.2 59 7.2 45
12:15 1024 30.24 853 25.19 15.9 60.7 56 7.3 45.1
12:20 1024 30.24 853 25.19 15.4 59.7 58 7.2 45
12:25 1024 30.24 853 25.19 15.6 60 58 7.5 45.5
12:30 1024 30.24 853 25.19 15.1 59.3 55 6.3 43.3
12:35 1024 30.24 853 25.19 15.5 59.9 55 6.4 43.6
12:40 1024 30.24 853 25.19 15.7 60.3 55 6.7 44.1
12:45 1024 30.24 853 25.19 16 60.7 54 6.7 44
12:50 1024 30.24 853 25.19 16.1 61 54 6.9 44.4
12:55 1024 30.24 853 25.19 16.7 62 55 7.7 45.8
13:00 1024 30.24 853 25.19 16.2 61.2 54 7.1 44.8
13:05 1024 30.24 853 25.19 16.4 61.5 53 7 44.6
13:10 1024 30.24 853 25.19 16.5 61.6 55 7.4 45.4
13:15 1023 30.21 853 25.19 16.9 62.4 50 6.6 43.9
13:20 1023 30.21 853 25.19 16.8 62.2 50 6.3 43.4
13:25 1023 30.21 853 25.19 16.5 61.6 49 5.8 42.4
13:30 1023 30.21 853 25.19 16.7 62.1 48 5.6 42.1
13:35 1023 30.21 852 25.16 17.4 63.3 47 6.1 43
13:40 1023 30.21 852 25.16 17.8 64.1 47 6.4 43.5
13:45 1023 30.21 852 25.16 17.5 63.5 46 6 42.8
13:50 1023 30.21 852 25.16 17.3 63.1 46 5.8 42.4
13:55 1023 30.21 852 25.16 17.1 62.8 50 6.7 44.1
14:00 1023 30.21 852 25.16 17.8 64.1 47 6.4 43.5
14:05 1023 30.21 852 25.16 17.8 64 47 6.4 43.5
14:10 1023 30.21 852 25.16 18 64.5 45 6.1 42.9
14:15 1023 30.21 852 25.16 17.7 63.8 46 6 42.7
14:20 1023 30.21 852 25.16 17.5 63.5 47 6.2 43.1
14:25 1023 30.21 852 25.16 17.8 64.1 49 6.9 44.5
14:30 1023 30.21 852 25.16 18.1 64.6 48 7.1 44.8
14:35 1023 30.21 852 25.16 17.9 64.3 49 7.1 44.7
14:40 1023 30.21 852 25.16 17.7 63.9 49 7 44.7
14:45 1023 30.21 852 25.16 17.8 64 49 7 44.6
14:50 1023 30.21 852 25.16 17.8 64 49 7 44.7
14:55 1023 30.21 852 25.16 17.9 64.3 49 7 44.7
15:00 1023 30.21 852 25.16 18 64.3 50 7.5 45.6
15:05 1023 30.21 852 25.16 17.8 64.1 51 7.6 45.6
15:10 1022 30.18 852 25.16 17.9 64.1 49 7.1 44.8
15:15 1022 30.18 852 25.16 17.9 64.3 50 7.5 45.5
15:20 1022 30.18 852 25.16 18 64.4 49 7.4 45.3
15:25 1022 30.18 852 25.16 17.7 63.9 50 7.4 45.4
15:30 1022 30.18 852 25.16 17.6 63.6 50 7 44.6
15:35 1022 30.18 852 25.16 18.1 64.5 49 7.2 45
15:40 1022 30.18 852 25.16 18 64.3 49 7.4 45.2
15:45 1022 30.18 851 25.13 17.1 62.7 52 7.2 44.9
15:50 1022 30.18 851 25.13 17.2 62.9 51 7.1 44.8
15:55 1022 30.18 851 25.13 17.2 62.9 51 7 44.7
16:00 1022 30.18 851 25.13 17.3 63.2 51 7.1 44.8
16:05 1022 30.18 851 25.13 17.3 63.1 52 7.5 45.6
16:10 1022 30.18 851 25.13 17.1 62.7 53 7.4 45.3
16:15 1022 30.18 851 25.13 17.2 63 52 7.3 45.1
16:20 1022 30.18 851 25.13 17.1 62.7 51 6.9 44.5
16:25 1022 30.18 851 25.13 17 62.7 53 7.4 45.4
16:30 1022 30.18 851 25.13 17.2 62.9 52 7.3 45.1
16:35 1022 30.18 851 25.13 17.3 63.2 53 7.7 45.9
16:40 1022 30.18 851 25.13 17 62.6 53 7.6 45.6
16:45 1022 30.18 851 25.13 16.9 62.4 53 7.4 45.3
16:50 1022 30.18 851 25.13 16.6 61.9 56 7.8 46
16:55 1021 30.15 851 25.13 16.9 62.4 53 7.5 45.4
17:00 1021 30.15 851 25.13 16.8 62.3 55 7.8 46
17:05 1021 30.15 851 25.13 16.5 61.7 56 7.7 45.9
17:10 1021 30.15 851 25.13 16.2 61.2 57 7.7 45.8
17:15 1021 30.15 850 25.1 15.9 60.6 57 7.6 45.7
17:20 1021 30.15 850 25.1 15.8 60.5 57 7.4 45.4
17:25 1021 30.15 850 25.1 15.7 60.3 57 7.3 45.2
17:30 1021 30.15 850 25.1 15.7 60.2 58 7.5 45.4
17:35 1021 30.15 850 25.1 15.4 59.8 59 7.5 45.6
17:40 1021 30.15 850 25.1 15.2 59.3 60 7.5 45.5
17:45 1021 30.15 850 25.1 15.1 59.2 60 7.6 45.6
17:50 1021 30.15 850 25.1 15.1 59.1 60 7.5 45.5
17:55 1021 30.15 850 25.1 15 59 61 7.6 45.7
18:00 1021 30.15 850 25.1 14.9 58.8 61 7.5 45.5
18:05 1021 30.15 850 25.1 14.7 58.4 61 7.4 45.3
18:10 1021 30.15 850 25.1 14.5 58.1 62 7.3 45.2
18:15 1021 30.15 850 25.1 14.3 57.7 63 7.4 45.3
18:20 1021 30.15 850 25.1 14.1 57.4 63 7.3 45.1
18:25 1021 30.15 850 25.1 14 57.2 64 7.3 45.1
18:30 1021 30.15 850 25.1 13.8 56.9 64 7.3 45.1
18:35 1021 30.15 850 25.1 13.7 56.7 65 7.2 45
18:40 1021 30.15 850 25.1 13.6 56.5 65 7.2 45
18:45 1021 30.15 850 25.1 13.4 56.1 66 7.3 45.1
18:50 1021 30.15 850 25.1 13.2 55.8 66 7.2 44.9
18:55 1021 30.15 850 25.1 13 55.3 67 7.1 44.7
19:00 1021 30.15 850 25.1 12.8 55 68 7.1 44.7
19:05 1021 30.15 850 25.1 12.5 54.6 69 7 44.6
19:10 1021 30.15 850 25.1 12.4 54.3 69 6.9 44.4
19:15 1021 30.15 850 25.1 12.3 54.1 69 6.9 44.4
19:20 1021 30.15 850 25.1 12.1 53.8 70 6.9 44.4
19:25 1021 30.15 850 25.1 12 53.5 71 6.9 44.4
19:30 1021 30.15 850 25.1 11.8 53.2 72 7 44.6
19:35 1021 30.15 850 25.1 11.6 52.9 72 6.8 44.3
19:40 1021 30.15 850 25.1 11.5 52.6 73 6.7 44.1
19:45 1021 30.15 850 25.1 11.4 52.4 73 6.7 44.1
19:50 1021 30.15 850 25.1 11.3 52.3 73 6.6 43.9
19:55 1021 30.15 850 25.1 11.2 52.1 73 6.6 43.9
20:00 1021 30.15 850 25.1 11.1 52 74 6.6 43.9
20:05 1021 30.15 850 25.1 11.1 51.9 74 6.6 43.9
20:10 1021 30.15 850 25.1 11 51.8 74 6.6 43.8
20:15 1021 30.15 850 25.1 10.9 51.7 74 6.5 43.7
20:20 1021 30.15 850 25.1 10.9 51.6 74 6.5 43.6
20:25 1021 30.15 850 25.1 10.8 51.5 74 6.5 43.6
20:30 1021 30.15 850 25.1 10.8 51.4 75 6.5 43.7
20:35 1021 30.15 850 25.1 10.7 51.3 75 6.5 43.6
20:40 1021 30.15 850 25.1 10.7 51.2 75 6.4 43.6
20:45 1021 30.15 850 25.1 10.7 51.2 75 6.5 43.7
20:50 1021 30.15 850 25.1 10.6 51.1 75 6.4 43.5
20:55 1021 30.15 850 25.1 10.6 51.1 75 6.4 43.6
21:00 1021 30.15 850 25.1 10.6 51.1 75 6.4 43.6
21:05 1021 30.15 850 25.1 10.6 51 75 6.4 43.6
21:10 1021 30.15 850 25.1 10.6 51 76 6.4 43.6
21:15 1021 30.15 851 25.13 10.5 51 76 6.4 43.5
21:20 1021 30.15 851 25.13 10.5 51 75 6.4 43.5
21:25 1021 30.15 851 25.13 10.5 50.9 76 6.4 43.5
21:30 1021 30.15 851 25.13 10.6 51 75 6.4 43.5
21:35 1021 30.15 851 25.13 10.6 51 75 6.4 43.5
21:40 1021 30.15 851 25.13 10.6 51.1 75 6.4 43.5
21:45 1021 30.15 851 25.13 10.6 51 75 6.4 43.5
21:50 1021 30.15 851 25.13 10.6 51 75 6.4 43.6
21:55 1021 30.15 851 25.13 10.5 50.9 75 6.4 43.5
22:00 1021 30.15 850 25.1 10.5 50.8 76 6.4 43.4
22:05 1021 30.15 851 25.13 10.4 50.8 76 6.4 43.5
22:10 1021 30.15 850 25.1 10.4 50.7 76 6.3 43.3
22:15 1021 30.15 850 25.1 10.4 50.8 75 6.3 43.3
22:20 1021 30.15 850 25.1 10.4 50.8 76 6.4 43.5
22:25 1021 30.15 851 25.13 10.4 50.7 75 6.3 43.3
22:30 1021 30.15 851 25.13 10.5 50.8 76 6.3 43.4
22:35 1022 30.18 851 25.13 10.5 50.9 75 6.3 43.3
22:40 1022 30.18 851 25.13 10.7 51.3 74 6.3 43.4
22:45 1022 30.18 851 25.13 10.8 51.5 74 6.4 43.5
22:50 1022 30.18 851 25.13 10.9 51.6 73 6.3 43.4
22:55 1022 30.18 851 25.13 11.1 52 72 6.4 43.4
23:00 1022 30.18 851 25.13 11.1 52 75 6.8 44.2
23:05 1022 30.18 852 25.16 11.1 51.9 76 7.1 44.8
23:10 1023 30.21 852 25.16 10.8 51.4 79 7.2 45
23:15 1023 30.21 852 25.16 10.6 51 79 7.2 44.9
23:20 1023 30.21 852 25.16 10.4 50.7 81 7.4 45.3
23:25 1023 30.21 852 25.16 10.1 50.2 84 7.5 45.5
23:30 1023 30.21 852 25.16 9.8 49.6 86 7.5 45.5
23:35 1023 30.21 852 25.16 9.6 49.2 87 7.5 45.5
23:40 1023 30.21 852 25.16 9.6 49.2 88 7.7 45.8
23:45 1023 30.21 852 25.16 9.5 49.2 88 7.7 45.8
23:50 1023 30.21 852 25.16 9.4 49 89 7.7 45.8
23:55 1023 30.21 853 25.19 9.4 48.9 89 7.7 45.9
24:00 1024 30.24 853 25.19 9.5 49.2 88 7.7 45.9